sensor_id;sensor_type;location;lat;lon;timestamp;P1;durP1;ratioP1;P2;durP2;ratioP2
13443;SDS011;6794;59.218;18.218;2024-03-02T00:01:05;39.10;;;13.90;;
13443;SDS011;6794;59.218;18.218;2024-03-02T00:03:31;58.15;;;22.20;;
13443;SDS011;6794;59.218;18.218;2024-03-02T00:05:58;56.50;;;19.07;;
13443;SDS011;6794;59.218;18.218;2024-03-02T00:08:25;40.83;;;15.63;;
13443;SDS011;6794;59.218;18.218;2024-03-02T00:10:51;38.33;;;13.77;;
13443;SDS011;6794;59.218;18.218;2024-03-02T00:13:19;45.43;;;14.07;;
13443;SDS011;6794;59.218;18.218;2024-03-02T00:15:48;35.17;;;12.60;;
13443;SDS011;6794;59.218;18.218;2024-03-02T00:18:21;39.90;;;13.63;;
13443;SDS011;6794;59.218;18.218;2024-03-02T00:20:52;36.27;;;12.97;;
13443;SDS011;6794;59.218;18.218;2024-03-02T00:23:20;47.40;;;15.20;;
13443;SDS011;6794;59.218;18.218;2024-03-02T00:25:47;34.30;;;12.67;;
13443;SDS011;6794;59.218;18.218;2024-03-02T00:28:17;34.07;;;13.30;;
13443;SDS011;6794;59.218;18.218;2024-03-02T00:33:13;37.67;;;13.73;;
13443;SDS011;6794;59.218;18.218;2024-03-02T00:35:39;48.65;;;21.85;;
13443;SDS011;6794;59.218;18.218;2024-03-02T00:38:05;52.60;;;17.03;;
13443;SDS011;6794;59.218;18.218;2024-03-02T00:40:32;37.27;;;14.23;;
13443;SDS011;6794;59.218;18.218;2024-03-02T00:42:58;37.47;;;12.67;;
13443;SDS011;6794;59.218;18.218;2024-03-02T00:45:25;38.13;;;13.13;;
13443;SDS011;6794;59.218;18.218;2024-03-02T00:47:51;44.37;;;13.73;;
13443;SDS011;6794;59.218;18.218;2024-03-02T00:50:18;39.77;;;13.97;;
13443;SDS011;6794;59.218;18.218;2024-03-02T00:52:44;40.57;;;13.63;;
13443;SDS011;6794;59.218;18.218;2024-03-02T00:55:10;41.90;;;14.60;;
13443;SDS011;6794;59.218;18.218;2024-03-02T00:57:36;31.80;;;13.00;;
13443;SDS011;6794;59.218;18.218;2024-03-02T01:00:03;34.60;;;12.70;;
13443;SDS011;6794;59.218;18.218;2024-03-02T01:02:33;39.87;;;13.10;;
13443;SDS011;6794;59.218;18.218;2024-03-02T01:04:59;32.97;;;13.23;;
13443;SDS011;6794;59.218;18.218;2024-03-02T01:07:25;54.22;;;22.75;;
13443;SDS011;6794;59.218;18.218;2024-03-02T01:09:51;52.00;;;16.23;;
13443;SDS011;6794;59.218;18.218;2024-03-02T01:12:17;44.17;;;16.63;;
13443;SDS011;6794;59.218;18.218;2024-03-02T01:14:44;37.57;;;14.40;;
13443;SDS011;6794;59.218;18.218;2024-03-02T01:17:10;42.07;;;14.73;;
13443;SDS011;6794;59.218;18.218;2024-03-02T01:19:36;37.87;;;14.10;;
13443;SDS011;6794;59.218;18.218;2024-03-02T01:22:03;56.40;;;16.50;;
13443;SDS011;6794;59.218;18.218;2024-03-02T01:24:30;37.07;;;14.33;;
13443;SDS011;6794;59.218;18.218;2024-03-02T01:26:56;43.20;;;15.23;;
13443;SDS011;6794;59.218;18.218;2024-03-02T01:29:22;45.77;;;14.87;;
13443;SDS011;6794;59.218;18.218;2024-03-02T01:31:48;52.90;;;16.60;;
13443;SDS011;6794;59.218;18.218;2024-03-02T01:34:16;45.73;;;15.37;;
13443;SDS011;6794;59.218;18.218;2024-03-02T01:36:42;33.97;;;14.40;;
13443;SDS011;6794;59.218;18.218;2024-03-02T01:39:08;40.90;;;14.00;;
13443;SDS011;6794;59.218;18.218;2024-03-02T01:41:34;39.17;;;14.00;;
13443;SDS011;6794;59.218;18.218;2024-03-02T01:44:00;43.97;;;15.40;;
13443;SDS011;6794;59.218;18.218;2024-03-02T01:46:26;48.60;;;15.17;;
13443;SDS011;6794;59.218;18.218;2024-03-02T01:48:52;39.43;;;13.93;;
13443;SDS011;6794;59.218;18.218;2024-03-02T01:51:18;34.07;;;14.33;;
13443;SDS011;6794;59.218;18.218;2024-03-02T01:53:44;39.60;;;13.77;;
13443;SDS011;6794;59.218;18.218;2024-03-02T01:56:11;41.73;;;16.23;;
13443;SDS011;6794;59.218;18.218;2024-03-02T01:58:37;38.13;;;13.23;;
13443;SDS011;6794;59.218;18.218;2024-03-02T02:01:03;36.40;;;14.60;;
13443;SDS011;6794;59.218;18.218;2024-03-02T02:03:29;48.43;;;16.90;;
13443;SDS011;6794;59.218;18.218;2024-03-02T02:05:55;41.70;;;15.33;;
13443;SDS011;6794;59.218;18.218;2024-03-02T02:08:21;46.17;;;16.03;;
13443;SDS011;6794;59.218;18.218;2024-03-02T02:10:47;55.53;;;21.42;;
13443;SDS011;6794;59.218;18.218;2024-03-02T02:13:14;45.00;;;16.17;;
13443;SDS011;6794;59.218;18.218;2024-03-02T02:15:40;51.83;;;15.27;;
13443;SDS011;6794;59.218;18.218;2024-03-02T02:18:06;34.80;;;13.97;;
13443;SDS011;6794;59.218;18.218;2024-03-02T02:20:32;36.40;;;14.97;;
13443;SDS011;6794;59.218;18.218;2024-03-02T02:25:24;56.67;;;17.97;;
13443;SDS011;6794;59.218;18.218;2024-03-02T02:27:50;41.43;;;15.87;;
13443;SDS011;6794;59.218;18.218;2024-03-02T02:30:26;37.07;;;15.27;;
13443;SDS011;6794;59.218;18.218;2024-03-02T02:32:53;45.43;;;16.93;;
13443;SDS011;6794;59.218;18.218;2024-03-02T02:35:19;64.17;;;20.77;;
13443;SDS011;6794;59.218;18.218;2024-03-02T02:37:45;41.40;;;17.17;;
13443;SDS011;6794;59.218;18.218;2024-03-02T02:40:12;45.43;;;16.57;;
13443;SDS011;6794;59.218;18.218;2024-03-02T02:42:38;71.13;;;26.95;;
13443;SDS011;6794;59.218;18.218;2024-03-02T02:45:05;66.40;;;21.47;;
13443;SDS011;6794;59.218;18.218;2024-03-02T02:47:31;46.93;;;16.97;;
13443;SDS011;6794;59.218;18.218;2024-03-02T02:50:04;46.70;;;17.57;;
13443;SDS011;6794;59.218;18.218;2024-03-02T02:52:36;51.27;;;17.47;;
13443;SDS011;6794;59.218;18.218;2024-03-02T02:55:04;51.53;;;18.93;;
13443;SDS011;6794;59.218;18.218;2024-03-02T02:57:34;60.97;;;18.43;;
13443;SDS011;6794;59.218;18.218;2024-03-02T03:00:02;57.23;;;19.03;;
13443;SDS011;6794;59.218;18.218;2024-03-02T03:02:30;44.00;;;16.93;;
13443;SDS011;6794;59.218;18.218;2024-03-02T03:04:56;49.80;;;17.63;;
13443;SDS011;6794;59.218;18.218;2024-03-02T03:07:22;54.37;;;20.13;;
13443;SDS011;6794;59.218;18.218;2024-03-02T03:09:48;53.73;;;19.17;;
13443;SDS011;6794;59.218;18.218;2024-03-02T03:12:15;61.07;;;19.47;;
13443;SDS011;6794;59.218;18.218;2024-03-02T03:14:41;66.00;;;16.97;;
13443;SDS011;6794;59.218;18.218;2024-03-02T03:17:07;41.37;;;16.37;;
13443;SDS011;6794;59.218;18.218;2024-03-02T03:19:33;50.97;;;19.17;;
13443;SDS011;6794;59.218;18.218;2024-03-02T03:21:59;50.97;;;16.73;;
13443;SDS011;6794;59.218;18.218;2024-03-02T03:24:25;58.60;;;16.60;;
13443;SDS011;6794;59.218;18.218;2024-03-02T03:26:51;36.57;;;15.30;;
13443;SDS011;6794;59.218;18.218;2024-03-02T03:29:17;51.00;;;18.27;;
13443;SDS011;6794;59.218;18.218;2024-03-02T03:31:43;47.40;;;17.07;;
13443;SDS011;6794;59.218;18.218;2024-03-02T03:34:09;43.30;;;16.50;;
13443;SDS011;6794;59.218;18.218;2024-03-02T03:36:37;47.37;;;17.20;;
13443;SDS011;6794;59.218;18.218;2024-03-02T03:39:03;49.83;;;17.47;;
13443;SDS011;6794;59.218;18.218;2024-03-02T03:41:31;56.10;;;18.93;;
13443;SDS011;6794;59.218;18.218;2024-03-02T03:43:57;47.90;;;17.93;;
13443;SDS011;6794;59.218;18.218;2024-03-02T03:46:23;73.53;;;28.15;;
13443;SDS011;6794;59.218;18.218;2024-03-02T03:48:49;49.63;;;19.93;;
13443;SDS011;6794;59.218;18.218;2024-03-02T03:51:15;53.47;;;21.90;;
13443;SDS011;6794;59.218;18.218;2024-03-02T03:53:41;54.63;;;20.33;;
13443;SDS011;6794;59.218;18.218;2024-03-02T03:56:08;55.37;;;20.57;;
13443;SDS011;6794;59.218;18.218;2024-03-02T03:58:34;54.77;;;22.27;;
13443;SDS011;6794;59.218;18.218;2024-03-02T04:01:00;60.97;;;20.50;;
13443;SDS011;6794;59.218;18.218;2024-03-02T04:03:26;54.47;;;19.13;;
13443;SDS011;6794;59.218;18.218;2024-03-02T04:05:52;54.20;;;19.33;;
13443;SDS011;6794;59.218;18.218;2024-03-02T04:08:18;55.07;;;19.60;;
13443;SDS011;6794;59.218;18.218;2024-03-02T04:10:44;50.53;;;21.00;;
13443;SDS011;6794;59.218;18.218;2024-03-02T04:13:10;54.70;;;20.10;;
13443;SDS011;6794;59.218;18.218;2024-03-02T04:15:36;53.43;;;18.30;;
13443;SDS011;6794;59.218;18.218;2024-03-02T04:18:02;53.30;;;19.80;;
13443;SDS011;6794;59.218;18.218;2024-03-02T04:20:28;59.00;;;24.03;;
13443;SDS011;6794;59.218;18.218;2024-03-02T04:22:55;54.63;;;20.77;;
13443;SDS011;6794;59.218;18.218;2024-03-02T04:25:21;52.43;;;20.13;;
13443;SDS011;6794;59.218;18.218;2024-03-02T04:27:47;56.70;;;20.23;;
13443;SDS011;6794;59.218;18.218;2024-03-02T04:30:13;55.47;;;19.10;;
13443;SDS011;6794;59.218;18.218;2024-03-02T04:32:39;46.07;;;19.37;;
13443;SDS011;6794;59.218;18.218;2024-03-02T04:35:05;48.47;;;20.10;;
13443;SDS011;6794;59.218;18.218;2024-03-02T04:37:35;51.47;;;18.83;;
13443;SDS011;6794;59.218;18.218;2024-03-02T04:40:01;50.23;;;18.20;;
13443;SDS011;6794;59.218;18.218;2024-03-02T04:42:27;50.47;;;21.07;;
13443;SDS011;6794;59.218;18.218;2024-03-02T04:44:53;55.77;;;22.77;;
13443;SDS011;6794;59.218;18.218;2024-03-02T04:47:19;53.40;;;19.47;;
13443;SDS011;6794;59.218;18.218;2024-03-02T04:49:45;50.93;;;18.77;;
13443;SDS011;6794;59.218;18.218;2024-03-02T04:52:11;54.50;;;19.20;;
13443;SDS011;6794;59.218;18.218;2024-03-02T04:54:37;50.30;;;18.10;;
13443;SDS011;6794;59.218;18.218;2024-03-02T04:57:23;55.50;;;19.67;;
13443;SDS011;6794;59.218;18.218;2024-03-02T04:59:49;56.43;;;19.23;;
13443;SDS011;6794;59.218;18.218;2024-03-02T05:02:15;47.13;;;18.97;;
13443;SDS011;6794;59.218;18.218;2024-03-02T05:04:41;44.47;;;17.57;;
13443;SDS011;6794;59.218;18.218;2024-03-02T05:07:07;45.80;;;16.67;;
13443;SDS011;6794;59.218;18.218;2024-03-02T05:09:33;43.00;;;17.17;;
13443;SDS011;6794;59.218;18.218;2024-03-02T05:11:59;51.57;;;18.20;;
13443;SDS011;6794;59.218;18.218;2024-03-02T05:14:48;48.57;;;18.07;;
13443;SDS011;6794;59.218;18.218;2024-03-02T05:17:14;53.17;;;18.87;;
13443;SDS011;6794;59.218;18.218;2024-03-02T05:19:40;56.80;;;18.67;;
13443;SDS011;6794;59.218;18.218;2024-03-02T05:22:06;56.42;;;20.83;;
13443;SDS011;6794;59.218;18.218;2024-03-02T05:24:32;53.63;;;19.00;;
13443;SDS011;6794;59.218;18.218;2024-03-02T05:26:59;52.87;;;19.63;;
13443;SDS011;6794;59.218;18.218;2024-03-02T05:29:25;50.83;;;17.50;;
13443;SDS011;6794;59.218;18.218;2024-03-02T05:31:51;50.03;;;20.37;;
13443;SDS011;6794;59.218;18.218;2024-03-02T05:34:17;42.43;;;17.90;;
13443;SDS011;6794;59.218;18.218;2024-03-02T05:36:43;56.70;;;21.97;;
13443;SDS011;6794;59.218;18.218;2024-03-02T05:39:09;52.17;;;18.90;;
13443;SDS011;6794;59.218;18.218;2024-03-02T05:41:35;58.03;;;20.37;;
13443;SDS011;6794;59.218;18.218;2024-03-02T05:44:03;51.20;;;18.83;;
13443;SDS011;6794;59.218;18.218;2024-03-02T05:46:29;47.60;;;19.27;;
13443;SDS011;6794;59.218;18.218;2024-03-02T05:48:55;51.90;;;18.70;;
13443;SDS011;6794;59.218;18.218;2024-03-02T05:51:21;49.60;;;17.53;;
13443;SDS011;6794;59.218;18.218;2024-03-02T05:53:47;48.67;;;18.57;;
13443;SDS011;6794;59.218;18.218;2024-03-02T05:56:13;47.87;;;19.43;;
13443;SDS011;6794;59.218;18.218;2024-03-02T05:58:40;45.60;;;17.27;;
13443;SDS011;6794;59.218;18.218;2024-03-02T06:01:25;48.40;;;18.77;;
13443;SDS011;6794;59.218;18.218;2024-03-02T06:03:53;52.57;;;19.30;;
13443;SDS011;6794;59.218;18.218;2024-03-02T06:06:19;48.00;;;18.10;;
13443;SDS011;6794;59.218;18.218;2024-03-02T06:08:46;46.20;;;17.90;;
13443;SDS011;6794;59.218;18.218;2024-03-02T06:11:12;53.57;;;20.10;;
13443;SDS011;6794;59.218;18.218;2024-03-02T06:13:38;54.90;;;20.20;;
13443;SDS011;6794;59.218;18.218;2024-03-02T06:16:04;47.27;;;19.23;;
13443;SDS011;6794;59.218;18.218;2024-03-02T06:18:30;43.67;;;17.40;;
13443;SDS011;6794;59.218;18.218;2024-03-02T06:20:56;43.80;;;16.70;;
13443;SDS011;6794;59.218;18.218;2024-03-02T06:23:22;49.93;;;18.13;;
13443;SDS011;6794;59.218;18.218;2024-03-02T06:25:48;54.42;;;21.98;;
13443;SDS011;6794;59.218;18.218;2024-03-02T06:28:14;45.63;;;18.20;;
13443;SDS011;6794;59.218;18.218;2024-03-02T06:30:41;49.13;;;18.63;;
13443;SDS011;6794;59.218;18.218;2024-03-02T06:33:08;50.60;;;17.27;;
13443;SDS011;6794;59.218;18.218;2024-03-02T06:35:34;43.40;;;16.03;;
13443;SDS011;6794;59.218;18.218;2024-03-02T06:38:00;48.77;;;16.93;;
13443;SDS011;6794;59.218;18.218;2024-03-02T06:40:26;42.37;;;16.93;;
13443;SDS011;6794;59.218;18.218;2024-03-02T06:42:52;42.07;;;16.57;;
13443;SDS011;6794;59.218;18.218;2024-03-02T06:45:18;43.83;;;17.23;;
13443;SDS011;6794;59.218;18.218;2024-03-02T06:47:45;41.40;;;16.90;;
13443;SDS011;6794;59.218;18.218;2024-03-02T06:50:11;33.80;;;15.60;;
13443;SDS011;6794;59.218;18.218;2024-03-02T06:52:37;41.57;;;15.67;;
13443;SDS011;6794;59.218;18.218;2024-03-02T06:55:03;40.20;;;15.10;;
13443;SDS011;6794;59.218;18.218;2024-03-02T06:57:30;40.43;;;16.97;;
13443;SDS011;6794;59.218;18.218;2024-03-02T06:59:56;42.33;;;18.40;;
13443;SDS011;6794;59.218;18.218;2024-03-02T07:02:26;42.37;;;16.47;;
13443;SDS011;6794;59.218;18.218;2024-03-02T07:04:53;35.83;;;15.43;;
13443;SDS011;6794;59.218;18.218;2024-03-02T07:07:19;46.37;;;15.37;;
13443;SDS011;6794;59.218;18.218;2024-03-02T07:09:45;40.07;;;17.10;;
13443;SDS011;6794;59.218;18.218;2024-03-02T07:12:12;39.43;;;16.87;;
13443;SDS011;6794;59.218;18.218;2024-03-02T07:14:38;44.80;;;16.73;;
13443;SDS011;6794;59.218;18.218;2024-03-02T07:17:23;44.10;;;16.50;;
13443;SDS011;6794;59.218;18.218;2024-03-02T07:19:49;41.40;;;16.33;;
13443;SDS011;6794;59.218;18.218;2024-03-02T07:22:15;38.63;;;17.00;;
13443;SDS011;6794;59.218;18.218;2024-03-02T07:24:43;42.27;;;16.33;;
13443;SDS011;6794;59.218;18.218;2024-03-02T07:27:10;37.50;;;15.53;;
13443;SDS011;6794;59.218;18.218;2024-03-02T07:29:37;40.70;;;15.10;;
13443;SDS011;6794;59.218;18.218;2024-03-02T07:32:03;42.03;;;21.92;;
13443;SDS011;6794;59.218;18.218;2024-03-02T07:34:30;36.60;;;17.03;;
13443;SDS011;6794;59.218;18.218;2024-03-02T07:36:56;36.63;;;16.13;;
13443;SDS011;6794;59.218;18.218;2024-03-02T07:39:22;38.37;;;18.07;;
13443;SDS011;6794;59.218;18.218;2024-03-02T07:41:48;33.00;;;16.20;;
13443;SDS011;6794;59.218;18.218;2024-03-02T07:44:14;32.53;;;15.20;;
13443;SDS011;6794;59.218;18.218;2024-03-02T07:46:43;32.63;;;14.43;;
13443;SDS011;6794;59.218;18.218;2024-03-02T07:49:11;30.57;;;14.67;;
13443;SDS011;6794;59.218;18.218;2024-03-02T07:51:39;35.00;;;14.53;;
13443;SDS011;6794;59.218;18.218;2024-03-02T07:54:05;33.60;;;14.60;;
13443;SDS011;6794;59.218;18.218;2024-03-02T07:56:31;30.10;;;14.13;;
13443;SDS011;6794;59.218;18.218;2024-03-02T07:58:57;33.07;;;15.27;;
13443;SDS011;6794;59.218;18.218;2024-03-02T08:01:26;34.33;;;14.93;;
13443;SDS011;6794;59.218;18.218;2024-03-02T08:03:52;35.05;;;18.73;;
13443;SDS011;6794;59.218;18.218;2024-03-02T08:06:20;31.70;;;16.23;;
13443;SDS011;6794;59.218;18.218;2024-03-02T08:08:47;27.00;;;17.20;;
13443;SDS011;6794;59.218;18.218;2024-03-02T08:11:13;28.83;;;13.37;;
13443;SDS011;6794;59.218;18.218;2024-03-02T08:13:39;26.20;;;12.20;;
13443;SDS011;6794;59.218;18.218;2024-03-02T08:16:05;29.83;;;12.90;;
13443;SDS011;6794;59.218;18.218;2024-03-02T08:18:34;27.50;;;12.63;;
13443;SDS011;6794;59.218;18.218;2024-03-02T08:21:00;27.33;;;13.33;;
13443;SDS011;6794;59.218;18.218;2024-03-02T08:23:27;22.53;;;12.63;;
13443;SDS011;6794;59.218;18.218;2024-03-02T08:25:53;22.77;;;10.80;;
13443;SDS011;6794;59.218;18.218;2024-03-02T08:28:19;25.10;;;13.13;;
13443;SDS011;6794;59.218;18.218;2024-03-02T08:30:45;27.37;;;12.17;;
13443;SDS011;6794;59.218;18.218;2024-03-02T08:33:11;23.30;;;12.33;;
13443;SDS011;6794;59.218;18.218;2024-03-02T08:35:37;26.70;;;17.52;;
13443;SDS011;6794;59.218;18.218;2024-03-02T08:38:03;25.27;;;14.20;;
13443;SDS011;6794;59.218;18.218;2024-03-02T08:40:29;29.60;;;13.67;;
13443;SDS011;6794;59.218;18.218;2024-03-02T08:42:55;25.00;;;12.90;;
13443;SDS011;6794;59.218;18.218;2024-03-02T08:45:22;22.87;;;12.37;;
13443;SDS011;6794;59.218;18.218;2024-03-02T08:47:48;25.83;;;14.63;;
13443;SDS011;6794;59.218;18.218;2024-03-02T08:50:14;22.60;;;12.93;;
13443;SDS011;6794;59.218;18.218;2024-03-02T08:52:40;23.87;;;12.67;;
13443;SDS011;6794;59.218;18.218;2024-03-02T08:55:06;24.67;;;12.97;;
13443;SDS011;6794;59.218;18.218;2024-03-02T08:57:33;23.63;;;13.17;;
13443;SDS011;6794;59.218;18.218;2024-03-02T08:59:59;23.33;;;11.60;;
13443;SDS011;6794;59.218;18.218;2024-03-02T09:02:25;19.77;;;11.67;;
13443;SDS011;6794;59.218;18.218;2024-03-02T09:04:51;25.03;;;14.77;;
13443;SDS011;6794;59.218;18.218;2024-03-02T09:07:18;24.27;;;15.33;;
13443;SDS011;6794;59.218;18.218;2024-03-02T09:09:44;23.63;;;12.23;;
13443;SDS011;6794;59.218;18.218;2024-03-02T09:12:10;19.80;;;11.63;;
13443;SDS011;6794;59.218;18.218;2024-03-02T09:14:36;22.00;;;11.87;;
13443;SDS011;6794;59.218;18.218;2024-03-02T09:17:02;21.87;;;11.77;;
13443;SDS011;6794;59.218;18.218;2024-03-02T09:19:29;22.10;;;11.83;;
13443;SDS011;6794;59.218;18.218;2024-03-02T09:21:55;18.57;;;12.43;;
13443;SDS011;6794;59.218;18.218;2024-03-02T09:24:22;19.37;;;12.47;;
13443;SDS011;6794;59.218;18.218;2024-03-02T09:26:49;16.97;;;11.07;;
13443;SDS011;6794;59.218;18.218;2024-03-02T09:29:15;23.33;;;11.67;;
13443;SDS011;6794;59.218;18.218;2024-03-02T09:31:41;17.23;;;12.53;;
13443;SDS011;6794;59.218;18.218;2024-03-02T09:34:07;18.00;;;12.60;;
13443;SDS011;6794;59.218;18.218;2024-03-02T09:36:33;16.50;;;10.67;;
13443;SDS011;6794;59.218;18.218;2024-03-02T09:38:59;17.73;;;11.60;;
13443;SDS011;6794;59.218;18.218;2024-03-02T09:41:25;15.50;;;10.53;;
13443;SDS011;6794;59.218;18.218;2024-03-02T09:43:52;15.50;;;10.80;;
13443;SDS011;6794;59.218;18.218;2024-03-02T09:46:18;17.80;;;10.30;;
13443;SDS011;6794;59.218;18.218;2024-03-02T09:48:45;20.80;;;12.03;;
13443;SDS011;6794;59.218;18.218;2024-03-02T09:51:11;16.23;;;11.27;;
13443;SDS011;6794;59.218;18.218;2024-03-02T09:53:38;16.40;;;10.10;;
13443;SDS011;6794;59.218;18.218;2024-03-02T09:56:04;15.33;;;10.30;;
13443;SDS011;6794;59.218;18.218;2024-03-02T09:58:30;15.93;;;11.10;;
13443;SDS011;6794;59.218;18.218;2024-03-02T10:00:56;20.17;;;11.67;;
13443;SDS011;6794;59.218;18.218;2024-03-02T10:03:23;19.27;;;11.80;;
13443;SDS011;6794;59.218;18.218;2024-03-02T10:05:52;14.33;;;9.77;;
13443;SDS011;6794;59.218;18.218;2024-03-02T10:08:18;17.20;;;9.70;;
13443;SDS011;6794;59.218;18.218;2024-03-02T10:10:44;16.92;;;11.65;;
13443;SDS011;6794;59.218;18.218;2024-03-02T10:13:11;16.37;;;10.13;;
13443;SDS011;6794;59.218;18.218;2024-03-02T10:15:38;13.97;;;9.63;;
13443;SDS011;6794;59.218;18.218;2024-03-02T10:18:10;16.90;;;10.50;;
13443;SDS011;6794;59.218;18.218;2024-03-02T10:20:36;17.50;;;10.07;;
13443;SDS011;6794;59.218;18.218;2024-03-02T10:23:12;14.10;;;9.47;;
13443;SDS011;6794;59.218;18.218;2024-03-02T10:25:38;16.20;;;10.20;;
13443;SDS011;6794;59.218;18.218;2024-03-02T10:28:04;16.53;;;9.83;;
13443;SDS011;6794;59.218;18.218;2024-03-02T10:30:31;16.27;;;9.87;;
13443;SDS011;6794;59.218;18.218;2024-03-02T10:32:57;18.03;;;10.60;;
13443;SDS011;6794;59.218;18.218;2024-03-02T10:35:24;13.40;;;8.73;;
13443;SDS011;6794;59.218;18.218;2024-03-02T10:37:51;14.70;;;9.10;;
13443;SDS011;6794;59.218;18.218;2024-03-02T10:40:17;14.43;;;10.27;;
13443;SDS011;6794;59.218;18.218;2024-03-02T10:42:43;17.23;;;10.88;;
13443;SDS011;6794;59.218;18.218;2024-03-02T10:45:10;16.57;;;9.87;;
13443;SDS011;6794;59.218;18.218;2024-03-02T10:47:38;15.67;;;8.67;;
13443;SDS011;6794;59.218;18.218;2024-03-02T10:50:05;18.53;;;11.10;;
13443;SDS011;6794;59.218;18.218;2024-03-02T10:52:34;17.70;;;9.33;;
13443;SDS011;6794;59.218;18.218;2024-03-02T10:55:00;13.30;;;9.03;;
13443;SDS011;6794;59.218;18.218;2024-03-02T10:57:26;14.47;;;9.20;;
13443;SDS011;6794;59.218;18.218;2024-03-02T10:59:53;16.57;;;9.20;;
13443;SDS011;6794;59.218;18.218;2024-03-02T11:02:22;17.33;;;10.00;;
13443;SDS011;6794;59.218;18.218;2024-03-02T11:04:50;16.50;;;8.60;;
13443;SDS011;6794;59.218;18.218;2024-03-02T11:07:19;12.03;;;8.80;;
13443;SDS011;6794;59.218;18.218;2024-03-02T11:10:08;13.00;;;8.33;;
13443;SDS011;6794;59.218;18.218;2024-03-02T11:12:38;13.80;;;9.73;;
13443;SDS011;6794;59.218;18.218;2024-03-02T11:15:06;13.52;;;10.50;;
13443;SDS011;6794;59.218;18.218;2024-03-02T11:17:35;13.30;;;8.13;;
13443;SDS011;6794;59.218;18.218;2024-03-02T11:20:03;15.33;;;9.37;;
13443;SDS011;6794;59.218;18.218;2024-03-02T11:22:29;15.10;;;10.17;;
13443;SDS011;6794;59.218;18.218;2024-03-02T11:24:55;16.20;;;9.07;;
13443;SDS011;6794;59.218;18.218;2024-03-02T11:27:58;13.57;;;7.83;;
13443;SDS011;6794;59.218;18.218;2024-03-02T11:30:08;13.53;;;8.97;;
13443;SDS011;6794;59.218;18.218;2024-03-02T11:32:34;13.30;;;8.70;;
13443;SDS011;6794;59.218;18.218;2024-03-02T11:35:00;16.37;;;9.43;;
13443;SDS011;6794;59.218;18.218;2024-03-02T11:37:27;16.53;;;9.57;;
13443;SDS011;6794;59.218;18.218;2024-03-02T11:39:53;13.27;;;8.83;;
13443;SDS011;6794;59.218;18.218;2024-03-02T11:42:19;14.67;;;7.90;;
13443;SDS011;6794;59.218;18.218;2024-03-02T11:44:46;12.30;;;8.43;;
13443;SDS011;6794;59.218;18.218;2024-03-02T11:47:14;16.05;;;9.80;;
13443;SDS011;6794;59.218;18.218;2024-03-02T11:49:41;12.97;;;8.27;;
13443;SDS011;6794;59.218;18.218;2024-03-02T11:52:08;13.53;;;8.77;;
13443;SDS011;6794;59.218;18.218;2024-03-02T11:54:35;14.73;;;9.00;;
13443;SDS011;6794;59.218;18.218;2024-03-02T11:57:04;13.93;;;9.90;;
13443;SDS011;6794;59.218;18.218;2024-03-02T11:59:30;11.67;;;8.00;;
13443;SDS011;6794;59.218;18.218;2024-03-02T12:01:56;14.80;;;8.10;;
13443;SDS011;6794;59.218;18.218;2024-03-02T12:04:23;12.97;;;9.63;;
13443;SDS011;6794;59.218;18.218;2024-03-02T12:06:56;12.03;;;8.37;;
13443;SDS011;6794;59.218;18.218;2024-03-02T12:09:25;14.53;;;8.77;;
13443;SDS011;6794;59.218;18.218;2024-03-02T12:12:04;12.20;;;8.10;;
13443;SDS011;6794;59.218;18.218;2024-03-02T12:14:31;13.03;;;7.57;;
13443;SDS011;6794;59.218;18.218;2024-03-02T12:16:57;12.30;;;8.60;;
13443;SDS011;6794;59.218;18.218;2024-03-02T12:19:26;11.50;;;8.77;;
13443;SDS011;6794;59.218;18.218;2024-03-02T12:21:54;13.03;;;8.47;;
13443;SDS011;6794;59.218;18.218;2024-03-02T12:24:21;9.87;;;7.43;;
13443;SDS011;6794;59.218;18.218;2024-03-02T12:26:48;13.43;;;8.10;;
13443;SDS011;6794;59.218;18.218;2024-03-02T12:29:14;11.80;;;7.63;;
13443;SDS011;6794;59.218;18.218;2024-03-02T12:31:40;11.63;;;8.33;;
13443;SDS011;6794;59.218;18.218;2024-03-02T12:34:06;11.83;;;7.70;;
13443;SDS011;6794;59.218;18.218;2024-03-02T12:36:39;10.07;;;7.53;;
13443;SDS011;6794;59.218;18.218;2024-03-02T12:39:06;15.17;;;7.50;;
13443;SDS011;6794;59.218;18.218;2024-03-02T12:41:35;12.57;;;7.83;;
13443;SDS011;6794;59.218;18.218;2024-03-02T12:44:01;12.70;;;7.90;;
13443;SDS011;6794;59.218;18.218;2024-03-02T12:46:27;12.07;;;7.33;;
13443;SDS011;6794;59.218;18.218;2024-03-02T12:48:53;12.97;;;7.93;;
13443;SDS011;6794;59.218;18.218;2024-03-02T12:51:19;11.93;;;8.45;;
13443;SDS011;6794;59.218;18.218;2024-03-02T12:53:45;10.50;;;8.30;;
13443;SDS011;6794;59.218;18.218;2024-03-02T12:56:11;11.37;;;7.70;;
13443;SDS011;6794;59.218;18.218;2024-03-02T12:58:40;11.60;;;8.00;;
13443;SDS011;6794;59.218;18.218;2024-03-02T13:01:07;13.43;;;7.50;;
13443;SDS011;6794;59.218;18.218;2024-03-02T13:03:40;10.60;;;8.00;;
13443;SDS011;6794;59.218;18.218;2024-03-02T13:06:07;13.43;;;8.17;;
13443;SDS011;6794;59.218;18.218;2024-03-02T13:08:33;12.33;;;7.20;;
13443;SDS011;6794;59.218;18.218;2024-03-02T13:11:00;12.93;;;7.50;;
13443;SDS011;6794;59.218;18.218;2024-03-02T13:13:26;12.37;;;7.10;;
13443;SDS011;6794;59.218;18.218;2024-03-02T13:15:56;13.97;;;8.00;;
13443;SDS011;6794;59.218;18.218;2024-03-02T13:18:22;8.87;;;7.33;;
13443;SDS011;6794;59.218;18.218;2024-03-02T13:20:48;11.63;;;8.37;;
13443;SDS011;6794;59.218;18.218;2024-03-02T13:23:14;11.02;;;7.93;;
13443;SDS011;6794;59.218;18.218;2024-03-02T13:25:40;11.97;;;7.20;;
13443;SDS011;6794;59.218;18.218;2024-03-02T13:28:07;12.50;;;6.67;;
13443;SDS011;6794;59.218;18.218;2024-03-02T13:30:33;10.80;;;7.73;;
13443;SDS011;6794;59.218;18.218;2024-03-02T13:32:59;14.30;;;7.20;;
13443;SDS011;6794;59.218;18.218;2024-03-02T13:35:25;13.40;;;7.13;;
13443;SDS011;6794;59.218;18.218;2024-03-02T13:37:51;12.60;;;7.37;;
13443;SDS011;6794;59.218;18.218;2024-03-02T13:40:17;12.20;;;8.03;;
13443;SDS011;6794;59.218;18.218;2024-03-02T13:42:48;10.33;;;7.20;;
13443;SDS011;6794;59.218;18.218;2024-03-02T13:45:15;10.50;;;7.93;;
13443;SDS011;6794;59.218;18.218;2024-03-02T13:47:43;11.13;;;7.93;;
13443;SDS011;6794;59.218;18.218;2024-03-02T13:50:09;10.30;;;7.20;;
13443;SDS011;6794;59.218;18.218;2024-03-02T13:52:35;16.57;;;7.97;;
13443;SDS011;6794;59.218;18.218;2024-03-02T13:55:01;11.27;;;8.27;;
13443;SDS011;6794;59.218;18.218;2024-03-02T13:57:27;12.27;;;8.98;;
13443;SDS011;6794;59.218;18.218;2024-03-02T13:59:53;12.27;;;8.17;;
13443;SDS011;6794;59.218;18.218;2024-03-02T14:02:20;12.27;;;7.53;;
13443;SDS011;6794;59.218;18.218;2024-03-02T14:04:46;12.80;;;7.63;;
13443;SDS011;6794;59.218;18.218;2024-03-02T14:07:17;12.43;;;8.20;;
13443;SDS011;6794;59.218;18.218;2024-03-02T14:09:43;12.63;;;7.77;;
13443;SDS011;6794;59.218;18.218;2024-03-02T14:12:10;11.27;;;8.43;;
13443;SDS011;6794;59.218;18.218;2024-03-02T14:14:38;10.67;;;7.83;;
13443;SDS011;6794;59.218;18.218;2024-03-02T14:17:04;12.47;;;8.63;;
13443;SDS011;6794;59.218;18.218;2024-03-02T14:19:31;13.23;;;9.00;;
13443;SDS011;6794;59.218;18.218;2024-03-02T14:21:58;11.70;;;8.70;;
13443;SDS011;6794;59.218;18.218;2024-03-02T14:24:24;14.20;;;8.23;;
13443;SDS011;6794;59.218;18.218;2024-03-02T14:26:51;12.90;;;8.40;;
13443;SDS011;6794;59.218;18.218;2024-03-02T14:29:18;15.38;;;9.60;;